sensor_id;sensor_type;location;lat;lon;timestamp;pressure;altitude;pressure_sealevel;temperature;humidity
75006;BME280;63553;51.814;4.600;2022-12-16T00:01:10;101150.53;;;8.18;84.63
75006;BME280;63553;51.814;4.600;2022-12-16T00:03:37;101154.13;;;8.19;84.79
75006;BME280;63553;51.814;4.600;2022-12-16T00:06:04;101157.72;;;8.19;84.67
75006;BME280;63553;51.814;4.600;2022-12-16T00:08:35;101150.53;;;8.18;84.92
75006;BME280;63553;51.814;4.600;2022-12-16T00:11:00;101159.94;;;8.17;84.62
75006;BME280;63553;51.814;4.600;2022-12-16T00:13:28;101163.88;;;8.16;84.70
75006;BME280;63553;51.814;4.600;2022-12-16T00:15:54;101158.00;;;8.18;84.99
75006;BME280;63553;51.814;4.600;2022-12-16T00:18:19;101158.31;;;8.16;84.82
75006;BME280;63553;51.814;4.600;2022-12-16T00:20:46;101165.25;;;8.14;84.99
75006;BME280;63553;51.814;4.600;2022-12-16T00:23:12;101174.94;;;8.16;84.46
75006;BME280;63553;51.814;4.600;2022-12-16T00:25:40;101166.91;;;8.15;84.75
75006;BME280;63553;51.814;4.600;2022-12-16T00:28:06;101172.16;;;8.16;84.55
75006;BME280;63553;51.814;4.600;2022-12-16T00:30:31;101167.75;;;8.15;84.56
75006;BME280;63553;51.814;4.600;2022-12-16T00:32:57;101168.84;;;8.14;84.29
75006;BME280;63553;51.814;4.600;2022-12-16T00:35:22;101175.22;;;8.15;84.28
75006;BME280;63553;51.814;4.600;2022-12-16T00:37:47;101184.34;;;8.15;84.07
75006;BME280;63553;51.814;4.600;2022-12-16T00:40:12;101177.47;;;8.13;84.68
75006;BME280;63553;51.814;4.600;2022-12-16T00:42:38;101185.78;;;8.13;84.57
75006;BME280;63553;51.814;4.600;2022-12-16T00:45:03;101191.00;;;8.14;84.41
75006;BME280;63553;51.814;4.600;2022-12-16T00:47:29;101184.97;;;8.12;83.90
75006;BME280;63553;51.814;4.600;2022-12-16T00:49:54;101181.66;;;8.10;84.23
75006;BME280;63553;51.814;4.600;2022-12-16T00:52:19;101195.72;;;8.14;84.46
75006;BME280;63553;51.814;4.600;2022-12-16T00:54:45;101184.97;;;8.12;84.53
75006;BME280;63553;51.814;4.600;2022-12-16T00:57:10;101191.09;;;8.09;84.21
75006;BME280;63553;51.814;4.600;2022-12-16T00:59:35;101200.97;;;8.15;84.02
75006;BME280;63553;51.814;4.600;2022-12-16T01:02:01;101204.84;;;8.14;83.95
75006;BME280;63553;51.814;4.600;2022-12-16T01:04:27;101197.97;;;8.12;84.19
75006;BME280;63553;51.814;4.600;2022-12-16T01:06:52;101198.81;;;8.12;83.87
75006;BME280;63553;51.814;4.600;2022-12-16T01:09:18;101204.03;;;8.14;83.81
75006;BME280;63553;51.814;4.600;2022-12-16T01:11:44;101202.69;;;8.11;84.07
75006;BME280;63553;51.814;4.600;2022-12-16T01:14:09;101209.88;;;8.12;83.83
75006;BME280;63553;51.814;4.600;2022-12-16T01:16:34;101212.66;;;8.12;83.60
75006;BME280;63553;51.814;4.600;2022-12-16T01:19:00;101219.03;;;8.13;83.58
75006;BME280;63553;51.814;4.600;2022-12-16T01:21:25;101222.06;;;8.11;84.00
75006;BME280;63553;51.814;4.600;2022-12-16T01:23:51;101221.78;;;8.13;84.06
75006;BME280;63553;51.814;4.600;2022-12-16T01:26:16;101218.69;;;8.14;83.54
75006;BME280;63553;51.814;4.600;2022-12-16T01:28:42;101212.13;;;8.10;83.67
75006;BME280;63553;51.814;4.600;2022-12-16T01:31:08;101226.19;;;8.14;83.92
75006;BME280;63553;51.814;4.600;2022-12-16T01:33:33;101232.03;;;8.12;83.84
75006;BME280;63553;51.814;4.600;2022-12-16T01:36:04;101228.16;;;8.13;83.64
75006;BME280;63553;51.814;4.600;2022-12-16T01:38:30;101236.47;;;8.13;83.87
75006;BME280;63553;51.814;4.600;2022-12-16T01:40:55;101237.25;;;8.14;84.00
75006;BME280;63553;51.814;4.600;2022-12-16T01:43:24;101232.03;;;8.12;83.53
75006;BME280;63553;51.814;4.600;2022-12-16T01:45:51;101234.81;;;8.12;83.70
75006;BME280;63553;51.814;4.600;2022-12-16T01:48:29;101250.00;;;8.15;83.20
75006;BME280;63553;51.814;4.600;2022-12-16T01:51:00;101249.47;;;8.13;83.89
75006;BME280;63553;51.814;4.600;2022-12-16T01:53:28;101257.47;;;8.14;83.78
75006;BME280;63553;51.814;4.600;2022-12-16T01:55:54;101256.66;;;8.14;83.52
75006;BME280;63553;51.814;4.600;2022-12-16T01:58:23;101265.78;;;8.14;83.44
75006;BME280;63553;51.814;4.600;2022-12-16T02:00:50;101271.31;;;8.14;83.43
75006;BME280;63553;51.814;4.600;2022-12-16T02:03:15;101268.56;;;8.14;83.56
75006;BME280;63553;51.814;4.600;2022-12-16T02:05:42;101274.09;;;8.14;83.60
75006;BME280;63553;51.814;4.600;2022-12-16T02:24:24;101287.13;;;8.14;83.35
75006;BME280;63553;51.814;4.600;2022-12-16T02:30:05;101290.19;;;8.12;83.84
75006;BME280;63553;51.814;4.600;2022-12-16T02:32:46;101290.47;;;8.11;83.70
75006;BME280;63553;51.814;4.600;2022-12-16T02:45:58;101300.19;;;8.08;83.72
75006;BME280;63553;51.814;4.600;2022-12-16T02:48:24;101304.63;;;8.09;83.52
75006;BME280;63553;51.814;4.600;2022-12-16T02:50:50;101306.28;;;8.10;83.76
75006;BME280;63553;51.814;4.600;2022-12-16T02:53:17;101309.84;;;8.11;83.62
75006;BME280;63553;51.814;4.600;2022-12-16T03:03:56;101323.50;;;8.07;83.42
75006;BME280;63553;51.814;4.600;2022-12-16T03:06:25;101324.59;;;8.06;83.58
75006;BME280;63553;51.814;4.600;2022-12-16T03:08:56;101322.13;;;8.05;83.40
75006;BME280;63553;51.814;4.600;2022-12-16T03:11:25;101327.38;;;8.06;83.33
75006;BME280;63553;51.814;4.600;2022-12-16T03:13:53;101327.06;;;8.08;83.55
75006;BME280;63553;51.814;4.600;2022-12-16T03:16:22;101335.69;;;8.06;83.51
75006;BME280;63553;51.814;4.600;2022-12-16T03:18:53;101333.75;;;8.07;83.75
75006;BME280;63553;51.814;4.600;2022-12-16T03:21:21;101328.78;;;8.04;83.55
75006;BME280;63553;51.814;4.600;2022-12-16T03:23:57;101340.09;;;8.07;83.44
75006;BME280;63553;51.814;4.600;2022-12-16T03:26:28;101335.97;;;8.05;83.77
75006;BME280;63553;51.814;4.600;2022-12-16T03:29:49;101346.75;;;8.06;83.66
75006;BME280;63553;51.814;4.600;2022-12-16T03:32:14;101352.28;;;8.06;83.64
75006;BME280;63553;51.814;4.600;2022-12-16T03:34:56;101362.53;;;8.06;83.51
75006;BME280;63553;51.814;4.600;2022-12-16T03:37:26;101362.03;;;8.04;83.80
75006;BME280;63553;51.814;4.600;2022-12-16T03:39:56;101369.19;;;8.05;83.39
75006;BME280;63553;51.814;4.600;2022-12-16T03:42:22;101365.63;;;8.04;83.66
75006;BME280;63553;51.814;4.600;2022-12-16T03:44:48;101371.69;;;8.06;83.45
75006;BME280;63553;51.814;4.600;2022-12-16T03:47:14;101373.09;;;8.04;83.65
75006;BME280;63553;51.814;4.600;2022-12-16T03:49:39;101384.16;;;8.04;83.24
75006;BME280;63553;51.814;4.600;2022-12-16T03:52:05;101368.72;;;7.98;83.92
75006;BME280;63553;51.814;4.600;2022-12-16T03:54:30;101383.63;;;8.02;83.66
75006;BME280;63553;51.814;4.600;2022-12-16T03:56:56;101385.59;;;8.01;83.56
75006;BME280;63553;51.814;4.600;2022-12-16T03:59:21;101386.38;;;8.02;83.65
75006;BME280;63553;51.814;4.600;2022-12-16T04:01:47;101392.75;;;8.02;83.25
75006;BME280;63553;51.814;4.600;2022-12-16T04:04:14;101401.06;;;8.02;83.69
75006;BME280;63553;51.814;4.600;2022-12-16T04:06:39;101404.13;;;8.01;83.54
75006;BME280;63553;51.814;4.600;2022-12-16T04:09:04;101399.72;;;8.00;83.35
75006;BME280;63553;51.814;4.600;2022-12-16T04:11:30;101404.41;;;7.99;83.19
75006;BME280;63553;51.814;4.600;2022-12-16T04:14:13;101396.94;;;8.00;83.21
75006;BME280;63553;51.814;4.600;2022-12-16T04:16:57;101400.00;;;7.98;83.40
75006;BME280;63553;51.814;4.600;2022-12-16T04:19:43;101391.72;;;7.93;82.64
75006;BME280;63553;51.814;4.600;2022-12-16T04:22:31;101387.59;;;7.91;81.87
75006;BME280;63553;51.814;4.600;2022-12-16T04:25:23;101392.63;;;7.89;81.97
75006;BME280;63553;51.814;4.600;2022-12-16T04:27:48;101399.25;;;7.88;81.52
75006;BME280;63553;51.814;4.600;2022-12-16T04:30:16;101398.44;;;7.87;81.75
75006;BME280;63553;51.814;4.600;2022-12-16T04:33:00;101410.09;;;7.84;81.33
75006;BME280;63553;51.814;4.600;2022-12-16T04:35:44;101415.63;;;7.84;80.94
75006;BME280;63553;51.814;4.600;2022-12-16T04:38:28;101417.03;;;7.81;81.15
75006;BME280;63553;51.814;4.600;2022-12-16T04:41:13;101420.94;;;7.80;81.49
75006;BME280;63553;51.814;4.600;2022-12-16T04:43:57;101428.94;;;7.82;82.02
75006;BME280;63553;51.814;4.600;2022-12-16T04:46:41;101429.78;;;7.82;82.39
75006;BME280;63553;51.814;4.600;2022-12-16T04:49:25;101428.94;;;7.82;82.39
75006;BME280;63553;51.814;4.600;2022-12-16T04:52:09;101433.91;;;7.85;82.45
75006;BME280;63553;51.814;4.600;2022-12-16T04:54:55;101436.66;;;7.85;82.75
75006;BME280;63553;51.814;4.600;2022-12-16T04:57:39;101427.53;;;7.84;82.90
75006;BME280;63553;51.814;4.600;2022-12-16T05:00:22;101430.03;;;7.86;83.15
75006;BME280;63553;51.814;4.600;2022-12-16T05:03:06;101432.78;;;7.86;83.21
75006;BME280;63553;51.814;4.600;2022-12-16T05:05:50;101432.50;;;7.88;83.37
75006;BME280;63553;51.814;4.600;2022-12-16T05:08:34;101430.03;;;7.86;83.54
75006;BME280;63553;51.814;4.600;2022-12-16T05:11:18;101432.22;;;7.89;83.24
75006;BME280;63553;51.814;4.600;2022-12-16T05:14:02;101434.41;;;7.92;82.66
75006;BME280;63553;51.814;4.600;2022-12-16T05:16:46;101438.59;;;8.18;84.26
75006;BME280;63553;51.814;4.600;2022-12-16T05:19:30;101440.84;;;8.45;85.15
75006;BME280;63553;51.814;4.600;2022-12-16T05:22:14;101442.97;;;8.53;85.03
75006;BME280;63553;51.814;4.600;2022-12-16T05:24:58;101446.63;;;8.49;83.99
75006;BME280;63553;51.814;4.600;2022-12-16T05:27:42;101438.94;;;8.41;84.06
75006;BME280;63553;51.814;4.600;2022-12-16T05:30:26;101442.28;;;8.37;84.22
75006;BME280;63553;51.814;4.600;2022-12-16T05:33:10;101444.59;;;8.30;84.23
75006;BME280;63553;51.814;4.600;2022-12-16T05:35:54;101454.03;;;8.24;84.15
75006;BME280;63553;51.814;4.600;2022-12-16T05:38:37;101465.41;;;8.23;84.96
75006;BME280;63553;51.814;4.600;2022-12-16T05:41:21;101464.09;;;8.15;84.68
75006;BME280;63553;51.814;4.600;2022-12-16T05:44:06;101465.50;;;8.13;84.84
75006;BME280;63553;51.814;4.600;2022-12-16T05:46:49;101476.88;;;8.11;84.61
75006;BME280;63553;51.814;4.600;2022-12-16T05:49:33;101478.28;;;8.09;84.92
75006;BME280;63553;51.814;4.600;2022-12-16T05:52:17;101473.88;;;8.03;84.54
75006;BME280;63553;51.814;4.600;2022-12-16T05:55:01;101489.66;;;8.07;84.68
75006;BME280;63553;51.814;4.600;2022-12-16T05:57:48;101494.09;;;8.03;84.63
75006;BME280;63553;51.814;4.600;2022-12-16T06:00:32;101495.78;;;8.04;84.42
75006;BME280;63553;51.814;4.600;2022-12-16T06:03:16;101498.81;;;8.03;84.43
75006;BME280;63553;51.814;4.600;2022-12-16T06:06:02;101502.66;;;8.07;83.45
75006;BME280;63553;51.814;4.600;2022-12-16T06:08:46;101497.53;;;8.24;83.92
75006;BME280;63553;51.814;4.600;2022-12-16T06:11:30;101495.59;;;8.24;83.42
75006;BME280;63553;51.814;4.600;2022-12-16T06:14:14;101492.81;;;8.24;83.86
75006;BME280;63553;51.814;4.600;2022-12-16T06:16:58;101489.53;;;8.22;84.26
75006;BME280;63553;51.814;4.600;2022-12-16T06:19:42;101490.38;;;8.18;84.40
75006;BME280;63553;51.814;4.600;2022-12-16T06:22:26;101494.19;;;8.27;82.33
75006;BME280;63553;51.814;4.600;2022-12-16T06:25:10;101489.53;;;8.22;83.17
75006;BME280;63553;51.814;4.600;2022-12-16T06:27:54;101497.28;;;8.20;83.62
75006;BME280;63553;51.814;4.600;2022-12-16T06:30:38;101501.75;;;8.16;83.57
75006;BME280;63553;51.814;4.600;2022-12-16T06:33:23;101510.88;;;8.17;83.74
75006;BME280;63553;51.814;4.600;2022-12-16T06:36:07;101510.34;;;8.15;83.56
75006;BME280;63553;51.814;4.600;2022-12-16T06:38:51;101513.69;;;8.12;83.41
75006;BME280;63553;51.814;4.600;2022-12-16T06:41:35;101517.88;;;8.09;83.48
75006;BME280;63553;51.814;4.600;2022-12-16T06:44:19;101515.38;;;8.08;83.60
75006;BME280;63553;51.814;4.600;2022-12-16T06:47:03;101528.69;;;8.06;83.73
75006;BME280;63553;51.814;4.600;2022-12-16T06:49:47;101535.34;;;8.05;83.62
75006;BME280;63553;51.814;4.600;2022-12-16T06:52:31;101541.19;;;8.03;83.69
75006;BME280;63553;51.814;4.600;2022-12-16T06:55:15;101539.53;;;8.02;83.34
75006;BME280;63553;51.814;4.600;2022-12-16T06:57:59;101545.06;;;8.02;83.50
75006;BME280;63553;51.814;4.600;2022-12-16T07:00:44;101544.84;;;7.99;83.46
75006;BME280;63553;51.814;4.600;2022-12-16T07:03:28;101541.50;;;7.97;82.48
75006;BME280;63553;51.814;4.600;2022-12-16T07:06:12;101540.94;;;8.00;81.52
75006;BME280;63553;51.814;4.600;2022-12-16T07:08:56;101553.09;;;8.04;81.65
75006;BME280;63553;51.814;4.600;2022-12-16T07:11:40;101555.59;;;8.00;82.46
75006;BME280;63553;51.814;4.600;2022-12-16T07:14:24;101561.16;;;8.00;82.40
75006;BME280;63553;51.814;4.600;2022-12-16T07:17:08;101562.25;;;7.99;81.96
75006;BME280;63553;51.814;4.600;2022-12-16T07:19:52;101575.03;;;7.95;83.00
75006;BME280;63553;51.814;4.600;2022-12-16T07:22:36;101584.97;;;7.96;82.49
75006;BME280;63553;51.814;4.600;2022-12-16T07:25:20;101581.69;;;7.94;82.97
75006;BME280;63553;51.814;4.600;2022-12-16T07:28:04;101580.84;;;7.94;82.97
75006;BME280;63553;51.814;4.600;2022-12-16T07:30:47;101585.81;;;7.97;82.19
75006;BME280;63553;51.814;4.600;2022-12-16T07:33:31;101592.97;;;8.03;81.83
75006;BME280;63553;51.814;4.600;2022-12-16T07:36:32;101596.56;;;8.03;82.40
75006;BME280;63553;51.814;4.600;2022-12-16T07:39:16;101601.59;;;8.01;82.63
75006;BME280;63553;51.814;4.600;2022-12-16T07:42:00;101603.50;;;8.01;82.72
75006;BME280;63553;51.814;4.600;2022-12-16T07:44:44;101604.09;;;7.98;83.13
75006;BME280;63553;51.814;4.600;2022-12-16T07:47:29;101615.16;;;7.98;82.97
75006;BME280;63553;51.814;4.600;2022-12-16T07:50:13;101617.09;;;7.97;83.20
75006;BME280;63553;51.814;4.600;2022-12-16T07:52:58;101614.34;;;7.97;82.88
75006;BME280;63553;51.814;4.600;2022-12-16T07:55:44;101619.03;;;7.97;82.92
75006;BME280;63553;51.814;4.600;2022-12-16T07:58:27;101623.47;;;7.98;82.98
75006;BME280;63553;51.814;4.600;2022-12-16T08:01:12;101633.44;;;7.99;83.15
75006;BME280;63553;51.814;4.600;2022-12-16T08:03:56;101641.75;;;7.99;83.02
75006;BME280;63553;51.814;4.600;2022-12-16T08:06:40;101648.66;;;8.01;82.95
75006;BME280;63553;51.814;4.600;2022-12-16T08:09:24;101655.00;;;8.02;82.93
75006;BME280;63553;51.814;4.600;2022-12-16T08:12:08;101645.53;;;8.08;82.93
75006;BME280;63553;51.814;4.600;2022-12-16T08:14:52;101649.66;;;8.15;82.67
75006;BME280;63553;51.814;4.600;2022-12-16T08:17:36;101658.78;;;8.21;82.51
75006;BME280;63553;51.814;4.600;2022-12-16T08:20:20;101667.59;;;8.33;82.22
75006;BME280;63553;51.814;4.600;2022-12-16T08:23:15;101668.03;;;8.50;81.75
75006;BME280;63553;51.814;4.600;2022-12-16T08:25:59;101667.06;;;8.70;81.18
75006;BME280;63553;51.814;4.600;2022-12-16T08:28:43;101662.78;;;8.82;80.89
75006;BME280;63553;51.814;4.600;2022-12-16T08:31:26;101656.91;;;8.89;80.30
75006;BME280;63553;51.814;4.600;2022-12-16T08:34:10;101652.13;;;8.94;80.40
75006;BME280;63553;51.814;4.600;2022-12-16T08:36:54;101657.66;;;9.00;80.30
75006;BME280;63553;51.814;4.600;2022-12-16T08:39:38;101662.88;;;9.01;80.39
75006;BME280;63553;51.814;4.600;2022-12-16T08:42:22;101666.78;;;9.00;80.43
75006;BME280;63553;51.814;4.600;2022-12-16T08:45:06;101674.75;;;9.07;80.24
75006;BME280;63553;51.814;4.600;2022-12-16T08:47:50;101677.13;;;9.18;79.92
75006;BME280;63553;51.814;4.600;2022-12-16T08:50:34;101679.31;;;9.26;79.61
75006;BME280;63553;51.814;4.600;2022-12-16T08:53:18;101680.59;;;9.34;79.23
75006;BME280;63553;51.814;4.600;2022-12-16T08:56:02;101679.34;;;9.45;79.33
75006;BME280;63553;51.814;4.600;2022-12-16T08:58:46;101681.13;;;9.60;78.14
75006;BME280;63553;51.814;4.600;2022-12-16T09:01:30;101691.53;;;9.73;78.10
75006;BME280;63553;51.814;4.600;2022-12-16T09:04:14;101690.69;;;9.96;77.23
75006;BME280;63553;51.814;4.600;2022-12-16T09:06:58;101699.84;;;10.20;76.41
75006;BME280;63553;51.814;4.600;2022-12-16T09:09:42;101704.88;;;10.37;75.58
75006;BME280;63553;51.814;4.600;2022-12-16T09:12:26;101709.63;;;10.55;76.64
75006;BME280;63553;51.814;4.600;2022-12-16T09:15:10;101710.13;;;10.94;86.72
75006;BME280;63553;51.814;4.600;2022-12-16T09:17:55;101721.31;;;11.54;96.33
75006;BME280;63553;51.814;4.600;2022-12-16T09:20:39;101716.09;;;12.56;98.96
75006;BME280;63553;51.814;4.600;2022-12-16T09:23:23;101719.81;;;13.93;100.00
75006;BME280;63553;51.814;4.600;2022-12-16T09:26:06;101742.88;;;6.14;81.57
75006;BME280;63553;51.814;4.600;2022-12-16T09:28:50;101752.56;;;2.96;71.93
75006;BME280;63553;51.814;4.600;2022-12-16T09:31:35;101759.34;;;2.60;73.42
75006;BME280;63553;51.814;4.600;2022-12-16T09:34:18;101760.47;;;1.91;75.69
75006;BME280;63553;51.814;4.600;2022-12-16T09:37:02;101763.63;;;1.37;78.57
75006;BME280;63553;51.814;4.600;2022-12-16T09:39:46;101766.63;;;1.35;79.61
75006;BME280;63553;51.814;4.600;2022-12-16T09:45:25;101785.75;;;0.77;82.26
75006;BME280;63553;51.814;4.600;2022-12-16T09:48:26;101796.59;;;0.95;81.99
75006;BME280;63553;51.814;4.600;2022-12-16T09:51:15;101792.81;;;1.20;82.34
75006;BME280;63553;51.814;4.600;2022-12-16T09:53:59;101800.81;;;1.33;81.97
75006;BME280;63553;51.814;4.600;2022-12-16T09:56:44;101803.94;;;1.36;81.78
75006;BME280;63553;51.814;4.600;2022-12-16T09:59:38;101792.97;;;1.36;81.37
75006;BME280;63553;51.814;4.600;2022-12-16T10:02:24;101799.97;;;1.55;80.32
75006;BME280;63553;51.814;4.600;2022-12-16T10:05:11;101803.31;;;1.34;79.86
75006;BME280;63553;51.814;4.600;2022-12-16T10:08:03;101803.66;;;1.61;80.25
75006;BME280;63553;51.814;4.600;2022-12-16T10:11:03;101807.34;;;1.66;79.27
75006;BME280;63553;51.814;4.600;2022-12-16T10:20:23;101810.56;;;3.50;73.93
75006;BME280;63553;51.814;4.600;2022-12-16T10:23:31;101811.72;;;4.57;77.53
75006;BME280;63553;51.814;4.600;2022-12-16T10:29:31;101808.75;;;4.90;70.07
75006;BME280;63553;51.814;4.600;2022-12-16T10:32:32;101817.25;;;4.84;69.30
75006;BME280;63553;51.814;4.600;2022-12-16T10:35:23;101809.09;;;4.72;70.62
75006;BME280;63553;51.814;4.600;2022-12-16T10:38:25;101818.25;;;4.51;70.73
75006;BME280;63553;51.814;4.600;2022-12-16T10:41:12;101815.84;;;4.33;72.43
75006;BME280;63553;51.814;4.600;2022-12-16T10:43:57;101812.38;;;3.99;71.76
75006;BME280;63553;51.814;4.600;2022-12-16T10:46:41;101813.59;;;4.08;73.72
75006;BME280;63553;51.814;4.600;2022-12-16T10:49:25;101808.66;;;4.32;72.48
75006;BME280;63553;51.814;4.600;2022-12-16T10:52:11;101812.00;;;4.12;69.83
75006;BME280;63553;51.814;4.600;2022-12-16T10:55:27;101804.78;;;4.81;72.96
75006;BME280;63553;51.814;4.600;2022-12-16T10:58:25;101797.88;;;4.79;69.25
75006;BME280;63553;51.814;4.600;2022-12-16T11:01:22;101814.06;;;3.83;72.82
75006;BME280;63553;51.814;4.600;2022-12-16T11:04:36;101826.91;;;3.56;72.88
75006;BME280;63553;51.814;4.600;2022-12-16T11:10:35;101815.78;;;4.76;74.29
75006;BME280;63553;51.814;4.600;2022-12-16T11:13:40;101824.16;;;4.38;72.85
75006;BME280;63553;51.814;4.600;2022-12-16T11:16:26;101816.03;;;4.26;72.11
75006;BME280;63553;51.814;4.600;2022-12-16T11:22:14;101823.31;;;4.59;72.42
75006;BME280;63553;51.814;4.600;2022-12-16T11:25:12;101833.38;;;4.05;74.15
75006;BME280;63553;51.814;4.600;2022-12-16T11:30:56;101823.63;;;4.19;73.10
75006;BME280;63553;51.814;4.600;2022-12-16T11:33:41;101819.03;;;4.73;78.55
75006;BME280;63553;51.814;4.600;2022-12-16T11:36:29;101821.22;;;5.30;72.43
75006;BME280;63553;51.814;4.600;2022-12-16T11:39:18;101818.19;;;4.73;66.83
75006;BME280;63553;51.814;4.600;2022-12-16T11:42:05;101811.22;;;5.92;83.01
75006;BME280;63553;51.814;4.600;2022-12-16T11:44:54;101801.28;;;5.54;71.34
75006;BME280;63553;51.814;4.600;2022-12-16T11:47:55;101807.13;;;5.58;76.64
75006;BME280;63553;51.814;4.600;2022-12-16T11:50:53;101809.84;;;4.89;67.55
75006;BME280;63553;51.814;4.600;2022-12-16T11:53:45;101812.78;;;4.78;66.63
75006;BME280;63553;51.814;4.600;2022-12-16T11:56:33;101803.00;;;4.65;70.62
75006;BME280;63553;51.814;4.600;2022-12-16T12:02:17;101813.41;;;4.36;67.49
75006;BME280;63553;51.814;4.600;2022-12-16T12:05:03;101814.75;;;4.34;67.46
75006;BME280;63553;51.814;4.600;2022-12-16T12:14:25;101819.16;;;4.57;69.07
75006;BME280;63553;51.814;4.600;2022-12-16T12:23:06;101832.59;;;4.31;65.82
75006;BME280;63553;51.814;4.600;2022-12-16T12:26:09;101832.97;;;4.88;71.19
75006;BME280;63553;51.814;4.600;2022-12-16T12:29:08;101832.31;;;4.76;69.83
75006;BME280;63553;51.814;4.600;2022-12-16T12:38:24;101845.94;;;5.20;66.30
75006;BME280;63553;51.814;4.600;2022-12-16T12:41:18;101851.13;;;4.36;67.72
75006;BME280;63553;51.814;4.600;2022-12-16T12:44:35;101854.19;;;4.88;70.73
75006;BME280;63553;51.814;4.600;2022-12-16T12:47:23;101849.00;;;4.43;71.74
75006;BME280;63553;51.814;4.600;2022-12-16T12:50:14;101849.16;;;4.58;71.04
75006;BME280;63553;51.814;4.600;2022-12-16T12:56:49;101857.38;;;5.01;72.03
75006;BME280;63553;51.814;4.600;2022-12-16T12:59:38;101854.94;;;4.57;66.04
75006;BME280;63553;51.814;4.600;2022-12-16T13:02:27;101853.22;;;4.51;67.14
75006;BME280;63553;51.814;4.600;2022-12-16T13:05:32;101856.94;;;4.18;76.08
75006;BME280;63553;51.814;4.600;2022-12-16T13:11:20;101858.75;;;5.31;78.94
75006;BME280;63553;51.814;4.600;2022-12-16T13:17:16;101857.16;;;5.40;73.47
75006;BME280;63553;51.814;4.600;2022-12-16T13:20:01;101855.94;;;4.99;66.23
75006;BME280;63553;51.814;4.600;2022-12-16T13:22:46;101856.34;;;4.81;67.97
75006;BME280;63553;51.814;4.600;2022-12-16T13:25:43;101852.91;;;4.47;65.74
75006;BME280;63553;51.814;4.600;2022-12-16T13:28:36;101852.50;;;5.82;74.17
75006;BME280;63553;51.814;4.600;2022-12-16T13:31:21;101846.22;;;4.91;66.06
75006;BME280;63553;51.814;4.600;2022-12-16T13:36:58;101853.88;;;4.84;73.18
75006;BME280;63553;51.814;4.600;2022-12-16T13:40:17;101867.91;;;3.96;68.69
75006;BME280;63553;51.814;4.600;2022-12-16T13:42:59;101865.19;;;4.39;68.21
75006;BME280;63553;51.814;4.600;2022-12-16T13:48:48;101878.94;;;4.61;75.27
75006;BME280;63553;51.814;4.600;2022-12-16T13:54:59;101880.81;;;5.04;67.99
75006;BME280;63553;51.814;4.600;2022-12-16T13:57:45;101889.00;;;4.29;67.25
75006;BME280;63553;51.814;4.600;2022-12-16T14:00:32;101878.94;;;5.10;67.60
75006;BME280;63553;51.814;4.600;2022-12-16T14:03:25;101896.28;;;3.80;67.61
75006;BME280;63553;51.814;4.600;2022-12-16T14:06:18;101902.53;;;4.30;70.70
75006;BME280;63553;51.814;4.600;2022-12-16T14:09:05;101911.34;;;4.32;71.54
75006;BME280;63553;51.814;4.600;2022-12-16T14:12:15;101912.34;;;3.71;70.91
75006;BME280;63553;51.814;4.600;2022-12-16T14:15:10;101914.38;;;3.43;69.03
75006;BME280;63553;51.814;4.600;2022-12-16T14:18:35;101912.44;;;3.26;69.07
75006;BME280;63553;51.814;4.600;2022-12-16T14:21:15;101931.47;;;3.61;72.10
75006;BME280;63553;51.814;4.600;2022-12-16T14:24:07;101928.72;;;3.16;70.82
75006;BME280;63553;51.814;4.600;2022-12-16T14:26:54;101931.69;;;3.26;72.06
75006;BME280;63553;51.814;4.600;2022-12-16T14:29:41;101936.00;;;3.39;69.38
75006;BME280;63553;51.814;4.600;2022-12-16T14:32:28;101949.19;;;3.54;74.98
75006;BME280;63553;51.814;4.600;2022-12-16T14:35:18;101943.34;;;4.77;88.70
75006;BME280;63553;51.814;4.600;2022-12-16T14:38:35;101938.03;;;7.33;90.58
75006;BME280;63553;51.814;4.600;2022-12-16T14:41:23;101931.91;;;8.32;86.60
75006;BME280;63553;51.814;4.600;2022-12-16T14:44:20;101936.44;;;8.92;84.51
75006;BME280;63553;51.814;4.600;2022-12-16T14:47:04;101944.50;;;9.37;83.66
75006;BME280;63553;51.814;4.600;2022-12-16T14:49:52;101943.78;;;9.61;82.48
75006;BME280;63553;51.814;4.600;2022-12-16T14:52:38;101945.34;;;9.77;81.41
75006;BME280;63553;51.814;4.600;2022-12-16T14:55:29;101945.78;;;9.89;80.99
75006;BME280;63553;51.814;4.600;2022-12-16T15:01:20;101958.66;;;10.14;80.75
75006;BME280;63553;51.814;4.600;2022-12-16T15:04:11;101963.88;;;10.20;81.09
75006;BME280;63553;51.814;4.600;2022-12-16T15:06:57;101966.72;;;10.15;80.74
75006;BME280;63553;51.814;4.600;2022-12-16T15:09:50;101970.66;;;10.04;81.77
75006;BME280;63553;51.814;4.600;2022-12-16T15:12:37;101969.66;;;9.90;82.21
75006;BME280;63553;51.814;4.600;2022-12-16T15:15:32;101973.91;;;9.82;83.08
75006;BME280;63553;51.814;4.600;2022-12-16T15:18:21;101975.63;;;9.73;83.54
75006;BME280;63553;51.814;4.600;2022-12-16T15:21:06;101980.13;;;9.64;84.07
75006;BME280;63553;51.814;4.600;2022-12-16T15:23:51;101991.56;;;9.58;84.23
75006;BME280;63553;51.814;4.600;2022-12-16T15:26:35;101994.38;;;9.53;84.69
75006;BME280;63553;51.814;4.600;2022-12-16T15:32:27;102004.44;;;9.43;84.90
75006;BME280;63553;51.814;4.600;2022-12-16T15:40:59;102008.66;;;9.31;85.41
75006;BME280;63553;51.814;4.600;2022-12-16T15:43:44;102005.63;;;9.27;85.23
75006;BME280;63553;51.814;4.600;2022-12-16T15:46:30;102012.56;;;9.25;85.31
75006;BME280;63553;51.814;4.600;2022-12-16T15:49:37;102023.41;;;9.21;85.40
75006;BME280;63553;51.814;4.600;2022-12-16T15:58:20;102029.53;;;9.13;85.65
75006;BME280;63553;51.814;4.600;2022-12-16T16:01:06;102035.66;;;9.10;85.67
75006;BME280;63553;51.814;4.600;2022-12-16T16:03:53;102037.91;;;9.08;85.74
75006;BME280;63553;51.814;4.600;2022-12-16T16:06:40;102031.78;;;9.06;85.58
75006;BME280;63553;51.814;4.600;2022-12-16T16:09:29;102032.34;;;9.03;85.80
75006;BME280;63553;51.814;4.600;2022-12-16T16:12:17;102036.53;;;9.01;85.73
75006;BME280;63553;51.814;4.600;2022-12-16T16:15:03;102031.53;;;8.98;85.94
75006;BME280;63553;51.814;4.600;2022-12-16T16:17:57;102038.22;;;8.97;86.10